Time;durP1;ratioP1;P1;durP2;ratioP2;P2;SDS_P1;SDS_P2;PMS_P1;PMS_P2;Temp;Humidity;BMP_temperature;BMP_pressure;BME280_temperature;BME280_humidity;BME280_pressure;Samples;Min_cycle;Max_cycle;Signal;HPM_P1;HPM_P2
2022/08/12 00:43:35;;;;;;;18.13;12.38;;;20.10;99.90;;;;;;5088165;28;20392;-69
2022/08/12 00:48:47;;;;;;;20.60;12.55;;;18.30;99.90;;;;;;5092193;28;20422;-69
2022/08/12 00:51:13;;;;;;;25.35;14.07;;;20.30;99.90;;;;;;5093169;28;20275;-69
2022/08/12 00:53:39;;;;;;;20.65;13.98;;;;;;;;;;5103295;28;20036;-69
2022/08/12 00:56:06;;;;;;;21.10;14.05;;;19.40;98.50;;;;;;5107739;28;20046;-69
2022/08/12 00:58:33;;;;;;;19.30;13.35;;;20.50;99.90;;;;;;5102462;28;20035;-69
2022/08/12 01:01:07;;;;;;;20.58;14.60;;;20.20;99.90;;;;;;5108739;28;20446;-69
2022/08/12 01:12:11;;;;;;;25.50;15.15;;;18.90;99.90;;;;;;5081540;28;20046;-69
2022/08/12 01:14:37;;;;;;;21.25;15.00;;;;;;;;;;5108375;28;20523;-69
2022/08/12 01:17:03;;;;;;;25.50;15.40;;;;;;;;;;5100480;28;20057;-69
2022/08/12 01:19:30;;;;;;;20.55;14.80;;;;;;;;;;5109481;28;20039;-69
2022/08/12 01:22:34;;;;;;;22.33;13.77;;;19.90;99.90;;;;;;5090989;28;20031;-69
2022/08/12 01:25:11;;;;;;;22.33;13.85;;;19.80;99.90;;;;;;5070220;28;20172;-69
2022/08/12 01:27:38;;;;;;;19.33;13.32;;;18.60;99.90;;;;;;5099420;28;20063;-69
2022/08/12 01:30:06;;;;;;;18.55;13.18;;;;;;;;;;5077806;28;20506;-68
2022/08/12 01:32:36;;;;;;;21.55;12.90;;;18.80;99.90;;;;;;5102890;28;20400;-69
2022/08/12 01:35:11;;;;;;;24.20;12.50;;;19.50;99.90;;;;;;5110883;28;20403;-69
2022/08/12 01:37:58;;;;;;;19.40;12.93;;;17.80;99.90;;;;;;5093272;28;20040;-69
2022/08/12 01:40:27;;;;;;;18.38;13.30;;;17.40;99.90;;;;;;5077668;28;20047;-69
2022/08/12 01:42:57;;;;;;;18.67;12.77;;;18.70;99.90;;;;;;5104051;28;20050;-69
2022/08/12 01:45:24;;;;;;;24.05;14.13;;;17.60;99.90;;;;;;5111617;28;20484;-69
2022/08/12 01:48:18;;;;;;;17.25;13.32;;;18.10;99.90;;;;;;5099824;28;20089;-69
2022/08/12 01:50:56;;;;;;;21.70;13.82;;;17.60;99.90;;;;;;5097381;28;20036;-69
2022/08/12 01:53:27;;;;;;;24.95;15.18;;;19.50;99.90;;;;;;5094886;28;20040;-68
2022/08/12 01:55:53;;;;;;;21.92;13.70;;;18.90;99.90;;;;;;5093398;28;20047;-69
2022/08/12 01:59:45;;;;;;;20.58;14.02;;;17.90;99.90;;;;;;5100444;28;20044;-69
2022/08/12 02:01:29;;;;;;;22.35;14.85;;;17.50;99.90;;;;;;5091724;28;20032;-69
2022/08/12 02:13:23;;;;;;;19.60;13.85;;;;;;;;;;5092076;28;20044;-69
2022/08/12 02:16:07;;;;;;;23.95;14.85;;;;;;;;;;5069467;28;20055;-69
2022/08/12 02:18:47;;;;;;;23.83;15.40;;;18.00;99.90;;;;;;5091798;28;20052;-69
2022/08/12 02:21:45;;;;;;;23.00;14.70;;;18.90;99.90;;;;;;5111048;28;20055;-68
2022/08/12 02:24:18;;;;;;;21.98;15.98;;;18.60;99.90;;;;;;5086880;28;20028;-68
2022/08/12 02:26:46;;;;;;;21.48;15.30;;;18.20;99.90;;;;;;5105242;28;20123;-69
2022/08/12 02:29:12;;;;;;;25.90;15.80;;;19.60;99.90;;;;;;5091625;28;20067;-69
2022/08/12 02:31:39;;;;;;;26.42;15.80;;;;;;;;;;5102225;28;20043;-69
2022/08/12 02:34:07;;;;;;;25.75;15.88;;;18.50;99.90;;;;;;5103045;28;20039;-69
2022/08/12 02:36:33;;;;;;;28.15;15.50;;;;;;;;;;5096213;28;20166;-69
2022/08/12 02:38:59;;;;;;;24.73;15.52;;;;;;;;;;5113889;28;20031;-69
2022/08/12 02:41:26;;;;;;;26.40;16.00;;;;;;;;;;5110134;28;20039;-69
2022/08/12 02:43:58;;;;;;;26.17;16.00;;;17.90;99.90;;;;;;5127287;27;20032;-69
2022/08/12 02:46:31;;;;;;;24.08;16.63;;;18.70;99.90;;;;;;5095371;28;20044;-69
2022/08/12 02:48:57;;;;;;;25.00;15.80;;;;;;;;;;5112656;28;20075;-69
2022/08/12 02:51:32;;;;;;;26.00;16.90;;;18.70;99.90;;;;;;5107315;28;20079;-69
2022/08/12 02:54:02;;;;;;;24.00;16.90;;;18.70;99.90;;;;;;5102615;28;20513;-69
2022/08/12 02:56:29;;;;;;;23.52;15.45;;;17.50;99.90;;;;;;5113477;28;20043;-69
2022/08/12 02:58:56;;;;;;;25.02;16.38;;;18.50;99.90;;;;;;5099149;28;20416;-69
2022/08/12 03:01:32;;;;;;;21.40;15.48;;;17.40;99.90;;;;;;5096275;28;20028;-69
2022/08/12 03:04:00;;;;;;;24.38;16.13;;;18.90;99.90;;;;;;5101207;28;20068;-69
2022/08/12 03:06:36;;;;;;;24.58;15.23;;;18.60;99.90;;;;;;5111988;28;20042;-69
2022/08/12 03:09:03;;;;;;;27.05;15.57;;;18.50;99.90;;;;;;5105186;28;20080;-69
2022/08/12 03:11:55;;;;;;;26.75;15.75;;;18.70;99.90;;;;;;5094818;28;20044;-69
2022/08/12 03:14:26;;;;;;;24.13;15.90;;;19.70;99.90;;;;;;5095838;28;20035;-69
2022/08/12 03:16:57;;;;;;;20.65;14.30;;;;;;;;;;5096029;28;20097;-69
2022/08/12 03:19:23;;;;;;;18.60;14.52;;;;;;;;;;5110835;28;20492;-69
2022/08/12 03:21:54;;;;;;;24.42;15.23;;;18.80;99.90;;;;;;5108460;28;20387;-69
2022/08/12 03:24:25;;;;;;;27.77;15.00;;;18.60;99.90;;;;;;5097174;28;20506;-69
2022/08/12 03:26:53;;;;;;;20.98;14.48;;;19.70;99.90;;;;;;5094793;28;20105;-69
2022/08/12 03:29:19;;;;;;;24.33;13.52;;;;;;;;;;5109855;28;20395;-69
2022/08/12 03:31:45;;;;;;;23.25;14.52;;;19.50;99.90;;;;;;5111204;28;20040;-69
2022/08/12 03:34:11;;;;;;;22.15;14.63;;;18.30;99.90;;;;;;5098111;28;20051;-69
2022/08/12 03:36:39;;;;;;;21.60;13.82;;;;;;;;;;5095743;28;20048;-69
2022/08/12 03:41:59;;;;;;;21.15;13.80;;;19.10;99.90;;;;;;5100651;28;20043;-69
2022/08/12 04:01:12;;;;;;;26.65;12.77;;;18.60;99.90;;;;;;5094444;28;20047;-69
2022/08/12 04:03:53;;;;;;;23.55;13.07;;;;;;;;;;5101842;28;20035;-69
2022/08/12 04:06:22;;;;;;;22.20;12.88;;;18.50;99.90;;;;;;5110856;28;20036;-69
2022/08/12 04:08:52;;;;;;;18.67;12.73;;;;;;;;;;5108014;28;20051;-69
2022/08/12 04:14:12;;;;;;;20.98;11.82;;;18.70;99.90;;;;;;5099238;28;20068;-69
2022/08/12 04:16:40;;;;;;;14.90;11.13;;;17.30;99.90;;;;;;5107353;28;20441;-69
2022/08/12 04:19:10;;;;;;;17.83;11.23;;;19.10;99.90;;;;;;5084294;28;20040;-69
2022/08/12 04:22:04;;;;;;;;;;;;;;;;;;;;;
2022/08/12 04:24:37;;;;;;;16.38;11.23;;;18.40;99.90;;;;;;5095326;28;20115;-69
2022/08/12 04:27:10;;;;;;;15.68;10.50;;;18.30;99.90;;;;;;5080268;28;20109;-69
2022/08/12 04:29:43;;;;;;;18.25;10.70;;;18.50;99.90;;;;;;5091618;28;20051;-70
2022/08/12 04:32:26;;;;;;;17.30;10.57;;;;;;;;;;5093718;28;20059;-70
2022/08/12 04:35:02;;;;;;;17.67;10.45;;;18.60;99.90;;;;;;5096607;28;20047;-70
2022/08/12 04:37:57;;;;;;;23.95;10.90;;;18.50;99.90;;;;;;5060942;28;20059;-69
2022/08/12 04:40:25;;;;;;;18.67;10.27;;;18.20;99.90;;;;;;5105184;28;20044;-69
2022/08/12 04:42:51;;;;;;;18.08;10.18;;;19.60;99.90;;;;;;5103173;28;20046;-69
2022/08/12 04:45:18;;;;;;;29.90;10.48;;;17.80;99.90;;;;;;5098089;28;20067;-70
2022/08/12 04:47:45;;;;;;;55.25;11.15;;;18.90;99.90;;;;;;5094198;28;20042;-69
2022/08/12 04:50:16;;;;;;;32.83;10.73;;;18.40;99.90;;;;;;5094868;28;20040;-69
2022/08/12 04:52:43;;;;;;;39.00;12.18;;;;;;;;;;5092690;28;20032;-70
2022/08/12 04:55:21;;;;;;;24.33;10.88;;;18.60;99.90;;;;;;5081567;28;20464;-70
2022/08/12 04:57:54;;;;;;;21.30;9.15;;;;;;;;;;5097870;28;20126;-70
2022/08/12 05:00:29;;;;;;;21.83;9.80;;;18.50;99.90;;;;;;5101741;28;20097;-70
2022/08/12 05:02:59;;;;;;;15.15;9.32;;;17.20;99.90;;;;;;5092385;28;20032;-70
2022/08/12 05:05:25;;;;;;;18.77;9.05;;;19.50;99.90;;;;;;5079075;28;20126;-70
2022/08/12 05:07:52;;;;;;;17.77;8.90;;;18.80;99.90;;;;;;5094723;28;20447;-70
2022/08/12 05:10:20;;;;;;;18.00;8.90;;;;;;;;;;5095240;28;20060;-70
2022/08/12 05:13:08;;;;;;;14.18;9.05;;;18.70;99.90;;;;;;5106199;28;20392;-70
2022/08/12 05:15:37;;;;;;;13.27;8.05;;;18.80;99.90;;;;;;5105949;28;20085;-70
2022/08/12 05:18:03;;;;;;;11.55;8.13;;;;;;;;;;5109579;28;20043;-71
2022/08/12 05:20:29;;;;;;;16.40;8.10;;;;;;;;;;5078266;28;20078;-70
2022/08/12 05:23:16;;;;;;;18.80;8.70;;;18.50;99.90;;;;;;5092404;28;20032;-70
2022/08/12 05:25:44;;;;;;;14.52;8.32;;;17.40;99.90;;;;;;5098574;28;20477;-70
2022/08/12 05:28:12;;;;;;;19.90;8.32;;;;;;;;;;5092161;28;20043;-70
2022/08/12 05:30:38;;;;;;;15.07;7.45;;;;;;;;;;5090338;28;20487;-70
2022/08/12 05:33:08;;;;;;;13.20;7.40;;;18.50;99.90;;;;;;5110194;28;20036;-70
2022/08/12 05:35:42;;;;;;;11.63;8.38;;;18.20;99.90;;;;;;5077444;28;20025;-70
2022/08/12 05:40:54;;;;;;;21.65;7.97;;;;;;;;;;5094696;28;20107;-70
2022/08/12 05:43:30;;;;;;;21.83;8.65;;;;;;;;;;5076551;28;20036;-70
2022/08/12 05:45:56;;;;;;;11.23;7.53;;;19.80;99.90;;;;;;5075356;28;20480;-69
2022/08/12 05:48:25;;;;;;;10.75;7.57;;;19.60;99.90;;;;;;5082691;28;20036;-69
2022/08/12 05:50:51;;;;;;;19.02;7.80;;;;;;;;;;5107286;28;20035;-69
2022/08/12 05:53:21;;;;;;;22.88;7.97;;;;;;;;;;5102510;28;20101;-69
2022/08/12 05:55:47;;;;;;;18.00;7.40;;;;;;;;;;5088514;28;20058;-70
2022/08/12 05:58:16;;;;;;;19.33;7.68;;;19.00;99.90;;;;;;5108999;28;20096;-70
2022/08/12 06:00:42;;;;;;;36.42;8.20;;;;;;;;;;5092193;28;20027;-69
2022/08/12 06:03:09;;;;;;;41.28;8.52;;;;;;;;;;5087799;28;20442;-70
2022/08/12 06:05:39;;;;;;;44.35;8.57;;;18.80;99.90;;;;;;5102510;28;20387;-70
2022/08/12 06:08:06;;;;;;;25.85;7.97;;;19.20;99.90;;;;;;5107150;28;20126;-70
2022/08/12 06:10:39;;;;;;;24.42;7.00;;;19.20;99.90;;;;;;5110499;28;20051;-70
2022/08/12 06:13:10;;;;;;;28.63;7.80;;;19.20;99.90;;;;;;5109720;28;20419;-70
2022/08/12 06:15:39;;;;;;;51.33;9.13;;;20.20;99.90;;;;;;5101774;28;20032;-70
2022/08/12 06:18:08;;;;;;;45.47;8.50;;;19.50;99.90;;;;;;5077424;28;20040;-70
2022/08/12 06:20:37;;;;;;;32.42;7.68;;;;;;;;;;5089471;28;20387;-70
2022/08/12 06:23:04;;;;;;;18.08;7.00;;;;;;;;;;5099758;28;20043;-70
2022/08/12 06:25:30;;;;;;;40.25;8.20;;;;;;;;;;5099103;28;20036;-70
2022/08/12 06:27:58;;;;;;;44.47;8.50;;;20.50;99.90;;;;;;5080267;28;20066;-70
2022/08/12 06:30:34;;;;;;;31.02;8.15;;;19.50;99.90;;;;;;5088727;28;20035;-70
2022/08/12 06:33:03;;;;;;;37.33;8.27;;;;;;;;;;5113495;28;20040;-70
2022/08/12 06:35:35;;;;;;;41.08;9.05;;;20.40;99.90;;;;;;5111453;28;20040;-70
2022/08/12 06:38:04;;;;;;;29.92;7.20;;;;;;;;;;5110838;28;20483;-70
2022/08/12 06:43:21;;;;;;;12.68;6.00;;;20.40;99.90;;;;;;5103684;28;20059;-70
2022/08/12 06:45:50;;;;;;;32.72;6.93;;;;;;;;;;5107744;28;20280;-70
2022/08/12 06:48:16;;;;;;;28.50;7.45;;;18.70;99.90;;;;;;5098925;28;20389;-70
2022/08/12 06:50:43;;;;;;;13.98;6.25;;;19.50;99.90;;;;;;5103393;28;20032;-70
2022/08/12 06:53:09;;;;;;;11.38;5.65;;;20.10;99.90;;;;;;5096139;28;20038;-70
2022/08/12 06:55:36;;;;;;;13.40;5.28;;;;;;;;;;5110881;28;20088;-70
2022/08/12 06:58:05;;;;;;;10.48;5.70;;;20.60;99.90;;;;;;5089923;28;20044;-70
2022/08/12 07:00:32;;;;;;;13.98;7.07;;;19.80;99.90;;;;;;5082644;28;20048;-70
2022/08/12 07:02:59;;;;;;;11.65;5.57;;;;;;;;;;5095003;28;20036;-71
2022/08/12 07:05:34;;;;;;;12.88;5.68;;;20.10;99.90;;;;;;5107774;28;20109;-70
2022/08/12 07:08:15;;;;;;;13.75;5.75;;;20.20;99.90;;;;;;5095981;28;20032;-70
2022/08/12 07:11:00;;;;;;;8.10;5.03;;;20.40;99.90;;;;;;5083720;28;20123;-70
2022/08/12 07:13:52;;;;;;;10.38;5.18;;;20.50;99.90;;;;;;5113316;28;20429;-71
2022/08/12 07:16:20;;;;;;;11.98;5.10;;;20.00;99.90;;;;;;5105667;28;20063;-70
2022/08/12 07:18:49;;;;;;;14.27;5.07;;;20.60;99.90;;;;;;5077424;28;20032;-71
2022/08/12 07:21:15;;;;;;;17.80;5.25;;;20.60;99.90;;;;;;5101984;28;20043;-71
2022/08/12 07:23:45;;;;;;;8.18;4.80;;;20.90;99.90;;;;;;5114497;28;20444;-71
2022/08/12 07:26:15;;;;;;;12.77;4.85;;;20.90;99.70;;;;;;5100010;28;20036;-70
2022/08/12 07:28:42;;;;;;;11.05;4.80;;;21.60;99.90;;;;;;5110210;28;20031;-69
2022/08/12 07:31:11;;;;;;;7.78;4.50;;;21.00;99.90;;;;;;5100386;27;20525;-70
2022/08/12 07:33:39;;;;;;;9.63;5.00;;;20.40;99.80;;;;;;5103917;28;20040;-70
2022/08/12 07:36:12;;;;;;;11.48;4.70;;;20.90;99.00;;;;;;5105204;28;20441;-70
2022/08/12 07:38:47;;;;;;;11.30;4.90;;;21.00;99.10;;;;;;5103961;28;20036;-69
2022/08/12 07:41:18;;;;;;;9.43;4.97;;;21.80;99.90;;;;;;5101968;28;20039;-70
2022/08/12 07:43:56;;;;;;;11.18;5.32;;;21.70;99.90;;;;;;5097574;28;20097;-70
2022/08/12 07:46:26;;;;;;;9.75;4.88;;;21.40;98.50;;;;;;5094267;28;20044;-70
2022/08/12 07:48:58;;;;;;;9.40;4.95;;;21.10;97.20;;;;;;5104448;28;20123;-70
2022/08/12 07:51:25;;;;;;;15.90;5.45;;;21.20;97.90;;;;;;5099742;28;20074;-70
2022/08/12 07:53:53;;;;;;;9.73;5.13;;;20.40;99.90;;;;;;5101639;28;20109;-70
2022/08/12 07:56:18;;;;;;;8.77;4.53;;;22.00;99.90;;;;;;5087519;28;20044;-69
2022/08/12 07:58:44;;;;;;;14.43;4.75;;;22.30;99.90;;;;;;5104425;28;20036;-69
2022/08/12 08:01:20;;;;;;;16.30;5.53;;;22.40;99.90;;;;;;5084475;28;20111;-69
2022/08/12 08:06:44;;;;;;;14.90;4.90;;;21.60;96.80;;;;;;5100988;28;20462;-70
2022/08/12 08:09:16;;;;;;;10.52;4.50;;;22.60;99.90;;;;;;5098231;28;20062;-70
2022/08/12 08:14:27;;;;;;;7.88;4.63;;;22.80;98.50;;;;;;5100290;28;20039;-71
2022/08/12 08:16:55;;;;;;;12.48;4.93;;;22.80;99.90;;;;;;5097965;28;20491;-70
2022/08/12 08:19:25;;;;;;;15.18;5.80;;;;;;;;;;5075225;28;20109;-70
2022/08/12 08:21:56;;;;;;;11.15;4.60;;;22.20;99.70;;;;;;5092782;28;20044;-70
2022/08/12 08:24:26;;;;;;;18.58;4.80;;;22.60;95.50;;;;;;5093619;28;20035;-70
2022/08/12 08:26:55;;;;;;;20.25;4.60;;;23.00;99.90;;;;;;5058783;28;20044;-70
2022/08/12 08:29:22;;;;;;;18.27;4.65;;;22.30;99.40;;;;;;5092493;28;20430;-70
2022/08/12 08:31:53;;;;;;;10.88;4.35;;;22.60;95.30;;;;;;5094605;28;20076;-70
2022/08/12 08:34:20;;;;;;;10.57;4.40;;;23.40;99.20;;;;;;5093249;28;20048;-67
2022/08/12 08:36:47;;;;;;;10.63;4.35;;;22.80;98.00;;;;;;5093722;28;20169;-67
2022/08/12 08:39:19;;;;;;;10.98;4.57;;;23.10;98.90;;;;;;5093195;28;20044;-68
2022/08/12 08:44:29;;;;;;;12.25;4.20;;;;;;;;;;5092989;28;20044;-68
2022/08/12 08:46:55;;;;;;;14.32;4.40;;;22.50;98.10;;;;;;5092984;28;20127;-67
2022/08/12 08:49:24;;;;;;;16.92;4.43;;;23.90;98.40;;;;;;5093201;28;20131;-67
2022/08/12 08:51:50;;;;;;;9.52;4.10;;;23.30;95.00;;;;;;5093128;28;20048;-68
2022/08/12 08:54:16;;;;;;;16.50;4.10;;;;;;;;;;5092815;28;20403;-67
2022/08/12 08:56:42;;;;;;;11.00;4.30;;;23.90;98.10;;;;;;5092656;28;20548;-68
2022/08/12 08:59:10;;;;;;;12.57;4.13;;;23.70;97.90;;;;;;5092763;28;20119;-68
2022/08/12 09:01:36;;;;;;;18.00;5.10;;;24.30;97.90;;;;;;5092787;28;20040;-70
2022/08/12 09:04:03;;;;;;;13.30;4.47;;;23.70;93.90;;;;;;5092890;28;20082;-70
2022/08/12 09:06:28;;;;;;;18.70;4.13;;;24.30;93.60;;;;;;5092904;28;20059;-70
2022/08/12 09:08:55;;;;;;;11.75;4.05;;;;;;;;;;5092495;28;20051;-70
2022/08/12 09:14:08;;;;;;;7.53;3.70;;;24.90;96.60;;;;;;5092957;28;20054;-70
2022/08/12 09:16:39;;;;;;;8.50;3.65;;;24.40;96.30;;;;;;5092722;28;20074;-70
2022/08/12 09:19:06;;;;;;;9.80;4.18;;;24.70;96.00;;;;;;5092671;28;20040;-70
2022/08/12 09:21:32;;;;;;;20.95;4.55;;;25.00;95.80;;;;;;5092706;28;20039;-70
2022/08/12 09:24:00;;;;;;;15.70;4.53;;;25.20;95.80;;;;;;5092424;28;20475;-70
2022/08/12 09:26:29;;;;;;;17.30;4.50;;;25.00;95.40;;;;;;5075822;28;20120;-70
2022/08/12 09:28:59;;;;;;;9.60;3.97;;;25.00;91.70;;;;;;5092652;28;20138;-70
2022/08/12 09:31:26;;;;;;;6.85;3.50;;;24.20;94.90;;;;;;5092495;28;20040;-70
2022/08/12 09:33:54;;;;;;;12.40;4.25;;;25.00;91.30;;;;;;5092458;28;20048;-71
2022/08/12 09:36:21;;;;;;;9.00;3.97;;;25.30;95.00;;;;;;5075706;28;20102;-70
2022/08/12 09:38:47;;;;;;;9.23;4.38;;;25.30;90.90;;;;;;5092502;28;20048;-70
2022/08/12 09:41:14;;;;;;;8.77;3.70;;;26.80;95.30;;;;;;5075497;28;20169;-70
2022/08/12 09:46:29;;;;;;;12.80;4.20;;;25.70;93.90;;;;;;5092151;28;20055;-70
2022/08/12 09:48:54;;;;;;;6.65;4.20;;;26.20;93.70;;;;;;5092315;28;20051;-70
2022/08/12 09:51:20;;;;;;;9.10;3.63;;;;;;;;;;5092628;28;20040;-70
2022/08/12 09:53:48;;;;;;;12.02;3.67;;;25.80;92.80;;;;;;5092582;28;20040;-70
2022/08/12 09:56:16;;;;;;;10.40;3.78;;;26.70;92.20;;;;;;5092209;28;20044;-70
2022/08/12 09:58:45;;;;;;;14.50;4.10;;;25.70;92.00;;;;;;5092320;28;20048;-70
2022/08/12 10:01:10;;;;;;;12.48;3.83;;;26.50;86.20;;;;;;5093395;28;20098;-70
2022/08/12 10:03:37;;;;;;;4.80;3.78;;;;;;;;;;5092322;28;20075;-70
2022/08/12 10:06:05;;;;;;;7.03;3.50;;;26.50;92.40;;;;;;5093288;28;20051;-70
2022/08/12 10:08:32;;;;;;;11.48;3.58;;;26.50;84.90;;;;;;5092180;28;20062;-70
2022/08/12 10:13:51;;;;;;;10.73;4.00;;;27.20;81.30;;;;;;5091927;28;20097;-70
2022/08/12 10:16:22;;;;;;;10.05;3.95;;;27.20;90.10;;;;;;5091925;28;20097;-70
2022/08/12 10:18:48;;;;;;;9.57;4.00;;;;;;;;;;5092318;28;20479;-70
2022/08/12 10:21:19;;;;;;;12.15;3.72;;;26.30;88.70;;;;;;5091938;28;20496;-70
2022/08/12 10:23:47;;;;;;;6.32;3.70;;;27.30;77.30;;;;;;5092072;28;20047;-70
2022/08/12 10:31:52;;;;;;;6.43;3.78;;;27.40;75.00;;;;;;5091864;28;20097;-70
2022/08/12 10:34:23;;;;;;;6.75;3.88;;;27.40;74.40;;;;;;5091783;28;20043;-70
2022/08/12 10:36:57;;;;;;;10.75;3.80;;;28.00;85.30;;;;;;5091882;28;20396;-70
2022/08/12 10:39:25;;;;;;;5.47;3.65;;;27.70;75.80;;;;;;5091951;28;20082;-70
2022/08/12 10:44:35;;;;;;;11.75;4.32;;;28.10;83.20;;;;;;5091812;28;20040;-70
2022/08/12 10:47:02;;;;;;;6.47;3.75;;;28.30;82.40;;;;;;5091750;28;20047;-70
2022/08/12 10:49:33;;;;;;;20.38;4.18;;;28.00;82.10;;;;;;5091736;28;20048;-70
2022/08/12 10:52:01;;;;;;;11.88;3.55;;;28.50;82.00;;;;;;5075609;28;20131;-70
2022/08/12 10:54:27;;;;;;;8.63;3.80;;;28.10;81.90;;;;;;5095308;28;20487;-70
2022/08/12 10:56:59;;;;;;;7.75;3.95;;;28.70;81.00;;;;;;5095177;28;20492;-70
2022/08/12 10:59:28;;;;;;;6.97;3.58;;;28.50;80.40;;;;;;5095180;28;20045;-70
2022/08/12 11:01:58;;;;;;;6.80;3.92;;;28.60;71.50;;;;;;5095394;28;20036;-68
2022/08/12 11:04:29;;;;;;;7.45;3.95;;;28.60;79.10;;;;;;5095701;28;20044;-68
2022/08/12 11:06:56;;;;;;;5.43;3.85;;;28.70;79.50;;;;;;5095212;28;20051;-68
2022/08/12 11:09:31;;;;;;;9.43;3.80;;;29.00;79.60;;;;;;5094747;28;20573;-68
2022/08/12 11:12:01;;;;;;;12.18;4.30;;;28.90;79.60;;;;;;5109755;28;20083;-68
2022/08/12 11:14:27;;;;;;;15.23;4.35;;;28.90;78.80;;;;;;5115285;28;20593;-68
2022/08/12 11:17:13;;;;;;;9.77;4.18;;;29.10;77.30;;;;;;5098160;28;20043;-68
2022/08/12 11:19:42;;;;;;;10.27;3.25;;;28.80;77.60;;;;;;5098384;28;20047;-67
2022/08/12 11:22:09;;;;;;;10.57;4.15;;;29.10;77.70;;;;;;5115487;28;20040;-68
2022/08/12 11:24:36;;;;;;;10.82;3.75;;;29.30;78.00;;;;;;5115171;28;20194;-68
2022/08/12 11:27:07;;;;;;;11.00;4.05;;;29.10;78.60;;;;;;5115098;28;20044;-68
2022/08/12 11:29:34;;;;;;;;;;;29.10;69.00;;;;;;5113888;28;20047;-69
2022/08/12 11:31:59;;;;;;;8.82;4.18;;;29.50;78.30;;;;;;5112585;28;19923;-69
2022/08/12 11:34:25;;;;;;;8.82;4.18;;;29.60;73.00;;;;;;5114835;28;20039;-68
2022/08/12 11:36:53;;;;;;;4.80;3.72;;;29.40;77.80;;;;;;5109762;28;20036;-68
2022/08/12 11:39:20;;;;;;;10.05;4.03;;;29.30;76.40;;;;;;5103676;28;20092;-70
2022/08/12 11:41:46;;;;;;;7.38;3.97;;;;;;;;;;5114094;28;20128;-72
2022/08/12 11:44:12;;;;;;;8.07;3.83;;;29.30;76.10;;;;;;5102976;28;20038;-69
2022/08/12 11:46:39;;;;;;;7.38;4.22;;;29.70;76.60;;;;;;5115007;28;20047;-69
2022/08/12 11:49:06;;;;;;;9.48;4.28;;;29.60;76.20;;;;;;5094896;28;20051;-69
2022/08/12 11:51:32;;;;;;;9.05;4.05;;;;;;;;;;5094270;28;20051;-69
2022/08/12 11:53:58;;;;;;;8.30;4.30;;;29.00;76.20;;;;;;5106284;28;20055;-69
2022/08/12 11:56:24;;;;;;;12.23;4.32;;;29.20;77.40;;;;;;5112415;28;20483;-69
2022/08/12 11:58:50;;;;;;;11.02;4.90;;;;;;;;;;5098195;28;20036;-69
2022/08/12 12:01:16;;;;;;;13.63;4.63;;;29.90;78.60;;;;;;5111065;28;20039;-69
2022/08/12 12:03:42;;;;;;;10.82;4.60;;;;;;;;;;5081266;28;20127;-69
2022/08/12 12:06:08;;;;;;;9.60;4.95;;;;;;;;;;5091774;28;20115;-69
2022/08/12 12:08:34;;;;;;;13.98;4.22;;;;;;;;;;5098253;28;20047;-69
2022/08/12 12:11:00;;;;;;;8.52;4.40;;;29.80;78.40;;;;;;5092405;28;20200;-69
2022/08/12 12:13:26;;;;;;;11.82;4.70;;;29.80;77.40;;;;;;5103225;28;20047;-69
2022/08/12 12:15:52;;;;;;;6.35;4.40;;;29.70;77.90;;;;;;5114149;28;20043;-69
2022/08/12 12:18:31;;;;;;;12.18;4.97;;;30.10;77.90;;;;;;5107245;28;20035;-69
2022/08/12 12:21:03;;;;;;;11.82;4.57;;;29.90;67.60;;;;;;5113969;28;20448;-69
2022/08/12 12:23:30;;;;;;;12.77;4.95;;;30.10;78.10;;;;;;5110371;28;20058;-69
2022/08/12 12:25:57;;;;;;;16.33;5.05;;;29.60;76.60;;;;;;5113691;28;20122;-69
2022/08/12 12:28:23;;;;;;;6.82;4.57;;;29.90;70.50;;;;;;5105389;28;20036;-69
2022/08/12 12:30:49;;;;;;;7.03;4.57;;;;;;;;;;5099423;28;20036;-69
2022/08/12 12:33:14;;;;;;;11.45;5.50;;;30.30;76.70;;;;;;5083204;28;20035;-69
2022/08/12 12:35:40;;;;;;;20.92;5.00;;;30.40;76.30;;;;;;5076886;28;20089;-69
2022/08/12 12:38:08;;;;;;;13.60;4.90;;;30.10;77.40;;;;;;5099881;28;20118;-69
2022/08/12 12:40:36;;;;;;;11.82;4.50;;;29.70;76.20;;;;;;5111052;28;20118;-69
2022/08/12 12:43:02;;;;;;;11.27;4.80;;;30.60;76.90;;;;;;5093174;28;20484;-69
2022/08/12 12:45:31;;;;;;;9.13;4.80;;;30.50;76.20;;;;;;5060289;28;20032;-69
2022/08/12 12:47:57;;;;;;;17.08;4.60;;;;;;;;;;5113188;28;20511;-69
2022/08/12 12:50:25;;;;;;;7.63;4.50;;;30.40;69.70;;;;;;5113526;28;20043;-69
2022/08/12 12:52:51;;;;;;;9.27;4.50;;;;;;;;;;5113182;28;20124;-69
2022/08/12 12:55:17;;;;;;;10.85;4.68;;;30.20;77.10;;;;;;5113564;28;20043;-69
2022/08/12 12:57:44;;;;;;;9.10;4.55;;;30.20;77.80;;;;;;5094947;28;20040;-69
2022/08/12 13:00:13;;;;;;;12.07;4.60;;;30.40;67.20;;;;;;5092184;28;20039;-67
2022/08/12 13:02:55;;;;;;;12.65;4.65;;;30.40;78.00;;;;;;5078632;28;20064;-69
2022/08/12 13:05:24;;;;;;;;;;;30.40;69.10;;;;;;5095433;28;20104;-69
2022/08/12 13:07:53;;;;;;;12.60;4.40;;;30.50;77.20;;;;;;5109388;28;19915;-69
2022/08/12 13:10:22;;;;;;;11.70;5.28;;;30.50;76.10;;;;;;5114027;28;20085;-69
2022/08/12 13:12:52;;;;;;;14.10;4.82;;;30.40;76.90;;;;;;5095694;28;20047;-69
2022/08/12 13:15:19;;;;;;;7.72;4.75;;;30.40;76.80;;;;;;5092207;28;20032;-69
2022/08/12 13:17:48;;;;;;;7.93;4.82;;;30.70;76.10;;;;;;5109595;28;20091;-68
2022/08/12 13:20:18;;;;;;;11.85;5.20;;;30.70;76.40;;;;;;5110504;28;20483;-69
2022/08/12 13:22:48;;;;;;;12.50;4.78;;;31.00;77.10;;;;;;5103396;28;20088;-69
2022/08/12 13:25:15;;;;;;;18.10;5.15;;;30.70;77.00;;;;;;5100914;28;20526;-68
2022/08/12 13:27:49;;;;;;;10.82;4.55;;;30.90;77.10;;;;;;5101474;28;20434;-69
2022/08/12 13:30:19;;;;;;;9.75;4.95;;;30.60;66.90;;;;;;5099806;28;20028;-69
2022/08/12 13:32:57;;;;;;;15.75;5.38;;;31.00;64.60;;;;;;5103888;28;20091;-69
2022/08/12 13:35:28;;;;;;;21.65;5.05;;;30.80;67.10;;;;;;5102600;28;20043;-69
2022/08/12 13:37:56;;;;;;;27.17;4.88;;;30.50;66.80;;;;;;5100900;28;20399;-69
2022/08/12 13:40:24;;;;;;;12.77;4.90;;;30.50;76.70;;;;;;5101905;28;20538;-69
2022/08/12 13:42:52;;;;;;;13.32;5.03;;;30.70;77.00;;;;;;5102736;28;20074;-69
2022/08/12 13:45:18;;;;;;;13.82;4.72;;;30.00;77.50;;;;;;5101169;28;20507;-69
2022/08/12 13:48:00;;;;;;;14.93;5.53;;;30.40;73.80;;;;;;5102012;28;20369;-69
2022/08/12 13:50:40;;;;;;;15.45;5.05;;;30.10;77.20;;;;;;5081914;28;20040;-69
2022/08/12 13:53:11;;;;;;;17.85;5.22;;;30.40;76.80;;;;;;5100079;28;20036;-69
2022/08/12 13:55:39;;;;;;;10.68;4.78;;;29.90;76.40;;;;;;5101695;28;20391;-70
2022/08/12 13:58:05;;;;;;;9.82;5.15;;;29.80;67.80;;;;;;5083913;28;20464;-69
2022/08/12 14:00:37;;;;;;;10.82;5.13;;;30.00;64.20;;;;;;5101918;28;20392;-69
2022/08/12 14:03:03;;;;;;;9.18;4.90;;;30.30;76.30;;;;;;5098547;28;20139;-69
2022/08/12 14:05:31;;;;;;;15.40;5.10;;;30.60;77.20;;;;;;5101696;28;20119;-69
2022/08/12 14:07:57;;;;;;;9.82;4.65;;;;;;;;;;5084453;28;20040;-69
2022/08/12 14:10:36;;;;;;;15.02;4.30;;;30.80;65.80;;;;;;5101270;28;20114;-69
2022/08/12 14:13:09;;;;;;;7.10;4.70;;;31.00;74.80;;;;;;5101769;28;20092;-69
2022/08/12 14:15:39;;;;;;;10.73;4.65;;;30.80;65.60;;;;;;5101881;28;20441;-69
2022/08/12 14:18:27;;;;;;;13.32;4.88;;;30.80;75.80;;;;;;5100519;28;20040;-69
2022/08/12 14:21:08;;;;;;;14.52;4.85;;;30.90;75.40;;;;;;5101514;28;20035;-70
2022/08/12 14:23:36;;;;;;;9.73;4.30;;;31.00;75.50;;;;;;5100432;28;20089;-70
2022/08/12 14:26:04;;;;;;;10.77;4.40;;;30.70;65.10;;;;;;5102438;28;20383;-70
2022/08/12 14:28:33;;;;;;;18.63;4.63;;;30.60;74.30;;;;;;5099442;28;20032;-70
2022/08/12 14:31:05;;;;;;;9.02;4.43;;;30.80;74.40;;;;;;5098937;28;20378;-70
2022/08/12 14:33:39;;;;;;;9.48;4.93;;;31.00;74.40;;;;;;5095699;28;20377;-70
2022/08/12 14:36:08;;;;;;;11.00;4.35;;;30.40;72.70;;;;;;5100631;28;20035;-71
2022/08/12 14:38:40;;;;;;;11.48;3.83;;;31.00;72.90;;;;;;5099382;28;20071;-70
2022/08/12 14:41:14;;;;;;;10.30;4.10;;;31.20;73.00;;;;;;5099451;28;20040;-69
2022/08/12 14:43:42;;;;;;;17.77;4.00;;;30.90;72.60;;;;;;5095427;28;20048;-70
2022/08/12 14:46:11;;;;;;;8.40;3.92;;;31.00;71.50;;;;;;5093989;28;20048;-69
2022/08/12 14:48:43;;;;;;;12.68;4.15;;;31.00;71.40;;;;;;5113885;28;20441;-69
2022/08/12 14:51:10;;;;;;;8.15;4.20;;;31.00;72.00;;;;;;5099931;28;20043;-69
2022/08/12 14:53:37;;;;;;;13.55;4.25;;;31.10;72.30;;;;;;5096355;28;20065;-69
2022/08/12 14:56:03;;;;;;;9.95;4.40;;;31.20;72.20;;;;;;5109105;28;20334;-69
2022/08/12 14:58:29;;;;;;;15.43;4.75;;;31.00;71.70;;;;;;5109636;28;20040;-69
2022/08/12 15:03:40;;;;;;;12.98;4.05;;;30.80;71.60;;;;;;5114423;28;20040;-69
2022/08/12 15:06:08;;;;;;;9.63;4.10;;;30.60;62.20;;;;;;5097376;28;20036;-69
2022/08/12 15:08:38;;;;;;;15.57;4.72;;;30.60;60.30;;;;;;5092117;28;20119;-69
2022/08/12 15:11:12;;;;;;;14.27;4.13;;;30.40;72.50;;;;;;5106935;28;20130;-69